sensor_id;sensor_type;location;lat;lon;timestamp;P1;P2;P0
33948;PMS7003;20229;49.856;19.030;2022-12-17T00:04:17;42;32;20
33948;PMS7003;20229;49.856;19.030;2022-12-17T00:09:33;217;174;96
33948;PMS7003;20229;49.856;19.030;2022-12-17T00:14:48;56;42;23
33948;PMS7003;20229;49.856;19.030;2022-12-17T00:20:05;32;21;5
33948;PMS7003;20229;49.856;19.030;2022-12-17T00:25:22;52;38;23
33948;PMS7003;20229;49.856;19.030;2022-12-17T00:30:37;48;38;24
33948;PMS7003;20229;49.856;19.030;2022-12-17T00:35:53;48;34;21
33948;PMS7003;20229;49.856;19.030;2022-12-17T00:41:09;48;37;23
33948;PMS7003;20229;49.856;19.030;2022-12-17T00:46:24;45;34;19
33948;PMS7003;20229;49.856;19.030;2022-12-17T00:51:40;42;33;21
33948;PMS7003;20229;49.856;19.030;2022-12-17T00:56:55;46;34;20
33948;PMS7003;20229;49.856;19.030;2022-12-17T01:02:11;45;34;20
33948;PMS7003;20229;49.856;19.030;2022-12-17T01:07:27;44;34;21
33948;PMS7003;20229;49.856;19.030;2022-12-17T01:12:42;47;34;19
33948;PMS7003;20229;49.856;19.030;2022-12-17T01:17:58;47;36;23
33948;PMS7003;20229;49.856;19.030;2022-12-17T01:23:13;45;35;22
33948;PMS7003;20229;49.856;19.030;2022-12-17T01:28:29;47;33;21
33948;PMS7003;20229;49.856;19.030;2022-12-17T01:33:43;42;33;19
33948;PMS7003;20229;49.856;19.030;2022-12-17T01:39:00;48;36;21
33948;PMS7003;20229;49.856;19.030;2022-12-17T01:49:43;40;30;17
33948;PMS7003;20229;49.856;19.030;2022-12-17T01:54:59;48;34;22
33948;PMS7003;20229;49.856;19.030;2022-12-17T02:00:18;49;34;21
33948;PMS7003;20229;49.856;19.030;2022-12-17T02:05:40;46;33;19
33948;PMS7003;20229;49.856;19.030;2022-12-17T02:11:04;42;32;19
33948;PMS7003;20229;49.856;19.030;2022-12-17T02:16:58;41;33;19
33948;PMS7003;20229;49.856;19.030;2022-12-17T02:27:45;37;31;18
33948;PMS7003;20229;49.856;19.030;2022-12-17T02:33:00;43;33;20
33948;PMS7003;20229;49.856;19.030;2022-12-17T02:38:21;44;32;21
33948;PMS7003;20229;49.856;19.030;2022-12-17T02:43:38;43;33;20
33948;PMS7003;20229;49.856;19.030;2022-12-17T02:48:54;46;34;20
33948;PMS7003;20229;49.856;19.030;2022-12-17T02:54:09;47;35;22
33948;PMS7003;20229;49.856;19.030;2022-12-17T02:59:25;45;36;21
33948;PMS7003;20229;49.856;19.030;2022-12-17T03:04:40;40;32;23
33948;PMS7003;20229;49.856;19.030;2022-12-17T03:09:56;44;35;21
33948;PMS7003;20229;49.856;19.030;2022-12-17T03:15:11;48;37;24
33948;PMS7003;20229;49.856;19.030;2022-12-17T03:20:27;43;32;19
33948;PMS7003;20229;49.856;19.030;2022-12-17T03:25:42;39;29;19
33948;PMS7003;20229;49.856;19.030;2022-12-17T03:30:58;52;38;25
33948;PMS7003;20229;49.856;19.030;2022-12-17T03:36:14;38;26;17
33948;PMS7003;20229;49.856;19.030;2022-12-17T03:41:29;43;32;21
33948;PMS7003;20229;49.856;19.030;2022-12-17T03:46:45;46;33;21
33948;PMS7003;20229;49.856;19.030;2022-12-17T03:52:00;48;36;23
33948;PMS7003;20229;49.856;19.030;2022-12-17T03:57:16;48;35;22
33948;PMS7003;20229;49.856;19.030;2022-12-17T04:02:31;53;40;25
33948;PMS7003;20229;49.856;19.030;2022-12-17T04:07:47;38;28;19
33948;PMS7003;20229;49.856;19.030;2022-12-17T04:13:02;43;32;20
33948;PMS7003;20229;49.856;19.030;2022-12-17T04:18:18;42;31;18
33948;PMS7003;20229;49.856;19.030;2022-12-17T04:23:34;46;35;23
33948;PMS7003;20229;49.856;19.030;2022-12-17T04:28:49;45;34;21
33948;PMS7003;20229;49.856;19.030;2022-12-17T04:34:05;40;30;19
33948;PMS7003;20229;49.856;19.030;2022-12-17T04:39:20;41;30;17
33948;PMS7003;20229;49.856;19.030;2022-12-17T04:44:36;42;33;21
33948;PMS7003;20229;49.856;19.030;2022-12-17T04:49:51;37;26;9
33948;PMS7003;20229;49.856;19.030;2022-12-17T04:55:07;47;35;20
33948;PMS7003;20229;49.856;19.030;2022-12-17T05:00:23;40;33;18
33948;PMS7003;20229;49.856;19.030;2022-12-17T05:05:38;43;33;18
33948;PMS7003;20229;49.856;19.030;2022-12-17T05:10:54;37;28;16
33948;PMS7003;20229;49.856;19.030;2022-12-17T05:16:09;40;28;18
33948;PMS7003;20229;49.856;19.030;2022-12-17T05:21:25;42;31;17
33948;PMS7003;20229;49.856;19.030;2022-12-17T05:26:40;43;30;16
33948;PMS7003;20229;49.856;19.030;2022-12-17T05:31:57;35;25;13
33948;PMS7003;20229;49.856;19.030;2022-12-17T05:37:13;40;32;17
33948;PMS7003;20229;49.856;19.030;2022-12-17T05:42:28;38;27;13
33948;PMS7003;20229;49.856;19.030;2022-12-17T05:47:44;38;27;15
33948;PMS7003;20229;49.856;19.030;2022-12-17T05:53:03;33;20;6
33948;PMS7003;20229;49.856;19.030;2022-12-17T05:58:19;36;25;14
33948;PMS7003;20229;49.856;19.030;2022-12-17T06:03:35;36;25;12
33948;PMS7003;20229;49.856;19.030;2022-12-17T06:08:50;23;16;3
33948;PMS7003;20229;49.856;19.030;2022-12-17T06:14:06;28;17;4
33948;PMS7003;20229;49.856;19.030;2022-12-17T06:19:21;27;20;5
33948;PMS7003;20229;49.856;19.030;2022-12-17T06:24:37;31;18;5
33948;PMS7003;20229;49.856;19.030;2022-12-17T06:29:53;29;15;2
33948;PMS7003;20229;49.856;19.030;2022-12-17T06:35:08;24;16;5
33948;PMS7003;20229;49.856;19.030;2022-12-17T06:40:26;25;20;7
33948;PMS7003;20229;49.856;19.030;2022-12-17T06:45:41;28;18;6
33948;PMS7003;20229;49.856;19.030;2022-12-17T06:50:57;32;20;5
33948;PMS7003;20229;49.856;19.030;2022-12-17T06:56:12;29;19;9
33948;PMS7003;20229;49.856;19.030;2022-12-17T07:01:28;37;23;10
33948;PMS7003;20229;49.856;19.030;2022-12-17T07:06:43;35;24;9
33948;PMS7003;20229;49.856;19.030;2022-12-17T07:11:59;45;34;14
33948;PMS7003;20229;49.856;19.030;2022-12-17T07:17:14;33;25;9
33948;PMS7003;20229;49.856;19.030;2022-12-17T07:22:30;58;43;18
33948;PMS7003;20229;49.856;19.030;2022-12-17T07:33:08;49;41;21
33948;PMS7003;20229;49.856;19.030;2022-12-17T07:38:24;53;43;20
33948;PMS7003;20229;49.856;19.030;2022-12-17T07:43:39;48;37;18
33948;PMS7003;20229;49.856;19.030;2022-12-17T07:48:55;42;32;11
33948;PMS7003;20229;49.856;19.030;2022-12-17T07:54:10;44;35;13
33948;PMS7003;20229;49.856;19.030;2022-12-17T07:59:26;42;31;11
33948;PMS7003;20229;49.856;19.030;2022-12-17T08:04:41;49;39;18
33948;PMS7003;20229;49.856;19.030;2022-12-17T08:09:57;48;39;21
33948;PMS7003;20229;49.856;19.030;2022-12-17T08:15:12;50;36;14
33948;PMS7003;20229;49.856;19.030;2022-12-17T08:20:28;37;26;9
33948;PMS7003;20229;49.856;19.030;2022-12-17T08:25:43;21;15;7
33948;PMS7003;20229;49.856;19.030;2022-12-17T08:30:59;24;14;5
33948;PMS7003;20229;49.856;19.030;2022-12-17T08:36:15;24;14;3
33948;PMS7003;20229;49.856;19.030;2022-12-17T08:41:30;32;18;5
33948;PMS7003;20229;49.856;19.030;2022-12-17T08:46:46;31;23;7
33948;PMS7003;20229;49.856;19.030;2022-12-17T08:52:01;41;30;15
33948;PMS7003;20229;49.856;19.030;2022-12-17T08:57:17;51;37;21
33948;PMS7003;20229;49.856;19.030;2022-12-17T09:02:32;46;36;19
33948;PMS7003;20229;49.856;19.030;2022-12-17T09:07:48;53;38;21
33948;PMS7003;20229;49.856;19.030;2022-12-17T09:13:04;50;40;24
33948;PMS7003;20229;49.856;19.030;2022-12-17T09:18:20;51;36;20
33948;PMS7003;20229;49.856;19.030;2022-12-17T09:23:36;58;44;26
33948;PMS7003;20229;49.856;19.030;2022-12-17T09:28:51;55;40;24
33948;PMS7003;20229;49.856;19.030;2022-12-17T09:34:07;53;38;22
33948;PMS7003;20229;49.856;19.030;2022-12-17T09:39:22;56;42;24
33948;PMS7003;20229;49.856;19.030;2022-12-17T09:44:41;55;41;26
33948;PMS7003;20229;49.856;19.030;2022-12-17T09:50:03;57;40;26
33948;PMS7003;20229;49.856;19.030;2022-12-17T09:55:27;66;50;31
33948;PMS7003;20229;49.856;19.030;2022-12-17T10:00:46;61;46;28
33948;PMS7003;20229;49.856;19.030;2022-12-17T10:11:29;56;42;27
33948;PMS7003;20229;49.856;19.030;2022-12-17T10:16:45;61;45;27
33948;PMS7003;20229;49.856;19.030;2022-12-17T10:27:59;63;45;28
33948;PMS7003;20229;49.856;19.030;2022-12-17T10:33:17;59;43;27
33948;PMS7003;20229;49.856;19.030;2022-12-17T10:38:34;59;43;25
33948;PMS7003;20229;49.856;19.030;2022-12-17T10:43:50;55;41;23
33948;PMS7003;20229;49.856;19.030;2022-12-17T10:54:30;58;44;28
33948;PMS7003;20229;49.856;19.030;2022-12-17T10:59:47;57;42;25
33948;PMS7003;20229;49.856;19.030;2022-12-17T11:05:04;52;38;20
33948;PMS7003;20229;49.856;19.030;2022-12-17T11:10:30;57;40;25
33948;PMS7003;20229;49.856;19.030;2022-12-17T11:15:55;55;41;24
33948;PMS7003;20229;49.856;19.030;2022-12-17T11:26:37;61;46;27
33948;PMS7003;20229;49.856;19.030;2022-12-17T11:43:23;63;44;28
33948;PMS7003;20229;49.856;19.030;2022-12-17T11:48:49;59;43;27
33948;PMS7003;20229;49.856;19.030;2022-12-17T11:54:19;54;40;24
33948;PMS7003;20229;49.856;19.030;2022-12-17T12:01:30;61;45;26
33948;PMS7003;20229;49.856;19.030;2022-12-17T12:07:02;60;43;27
33948;PMS7003;20229;49.856;19.030;2022-12-17T12:12:21;60;45;27
33948;PMS7003;20229;49.856;19.030;2022-12-17T12:23:35;60;46;29
33948;PMS7003;20229;49.856;19.030;2022-12-17T12:28:48;59;44;27
33948;PMS7003;20229;49.856;19.030;2022-12-17T12:34:13;65;50;33
33948;PMS7003;20229;49.856;19.030;2022-12-17T12:39:39;59;44;27
33948;PMS7003;20229;49.856;19.030;2022-12-17T12:51:04;65;49;29
33948;PMS7003;20229;49.856;19.030;2022-12-17T12:56:32;69;49;29
33948;PMS7003;20229;49.856;19.030;2022-12-17T13:01:49;65;47;29
33948;PMS7003;20229;49.856;19.030;2022-12-17T13:07:17;74;57;35
33948;PMS7003;20229;49.856;19.030;2022-12-17T13:12:21;68;54;32
33948;PMS7003;20229;49.856;19.030;2022-12-17T13:17:32;74;62;38
33948;PMS7003;20229;49.856;19.030;2022-12-17T13:22:47;68;50;31
33948;PMS7003;20229;49.856;19.030;2022-12-17T13:27:52;70;48;28
33948;PMS7003;20229;49.856;19.030;2022-12-17T13:43:32;75;54;33
33948;PMS7003;20229;49.856;19.030;2022-12-17T13:48:41;66;49;29
33948;PMS7003;20229;49.856;19.030;2022-12-17T13:58:56;64;50;31
33948;PMS7003;20229;49.856;19.030;2022-12-17T14:04:03;71;51;33
33948;PMS7003;20229;49.856;19.030;2022-12-17T14:09:07;95;75;44
33948;PMS7003;20229;49.856;19.030;2022-12-17T14:14:30;87;67;41
33948;PMS7003;20229;49.856;19.030;2022-12-17T14:19:35;74;59;35
33948;PMS7003;20229;49.856;19.030;2022-12-17T14:24:39;70;51;33
33948;PMS7003;20229;49.856;19.030;2022-12-17T14:29:51;62;44;28
33948;PMS7003;20229;49.856;19.030;2022-12-17T14:34:55;73;53;32
33948;PMS7003;20229;49.856;19.030;2022-12-17T14:40:17;66;49;29
33948;PMS7003;20229;49.856;19.030;2022-12-17T14:45:22;66;48;29
33948;PMS7003;20229;49.856;19.030;2022-12-17T14:50:43;68;46;27
33948;PMS7003;20229;49.856;19.030;2022-12-17T14:55:57;60;44;26
33948;PMS7003;20229;49.856;19.030;2022-12-17T15:01:12;55;41;26
33948;PMS7003;20229;49.856;19.030;2022-12-17T15:06:17;63;47;28
33948;PMS7003;20229;49.856;19.030;2022-12-17T15:11:35;65;48;28
33948;PMS7003;20229;49.856;19.030;2022-12-17T15:16:38;65;48;29
33948;PMS7003;20229;49.856;19.030;2022-12-17T15:22:02;82;66;40
33948;PMS7003;20229;49.856;19.030;2022-12-17T15:27:08;61;45;28
33948;PMS7003;20229;49.856;19.030;2022-12-17T15:32:28;51;34;15
33948;PMS7003;20229;49.856;19.030;2022-12-17T15:37:31;66;48;29
33948;PMS7003;20229;49.856;19.030;2022-12-17T15:42:54;51;38;22
33948;PMS7003;20229;49.856;19.030;2022-12-17T15:48:10;116;91;55
33948;PMS7003;20229;49.856;19.030;2022-12-17T15:53:20;67;48;29
33948;PMS7003;20229;49.856;19.030;2022-12-17T15:58:24;72;49;30
33948;PMS7003;20229;49.856;19.030;2022-12-17T16:03:46;80;61;31
33948;PMS7003;20229;49.856;19.030;2022-12-17T16:08:50;58;39;22
33948;PMS7003;20229;49.856;19.030;2022-12-17T16:14:12;38;26;8
33948;PMS7003;20229;49.856;19.030;2022-12-17T16:19:16;30;19;3
33948;PMS7003;20229;49.856;19.030;2022-12-17T16:24:38;35;22;6
33948;PMS7003;20229;49.856;19.030;2022-12-17T16:29:43;39;23;5
33948;PMS7003;20229;49.856;19.030;2022-12-17T16:35:05;38;24;6
33948;PMS7003;20229;49.856;19.030;2022-12-17T16:40:09;34;19;4
33948;PMS7003;20229;49.856;19.030;2022-12-17T16:45:31;27;14;2
33948;PMS7003;20229;49.856;19.030;2022-12-17T16:50:36;30;18;0
33948;PMS7003;20229;49.856;19.030;2022-12-17T16:55:57;29;19;7
33948;PMS7003;20229;49.856;19.030;2022-12-17T17:01:00;40;26;7
33948;PMS7003;20229;49.856;19.030;2022-12-17T17:06:23;40;22;7
33948;PMS7003;20229;49.856;19.030;2022-12-17T17:11:27;33;15;4
33948;PMS7003;20229;49.856;19.030;2022-12-17T17:16:50;38;27;10
33948;PMS7003;20229;49.856;19.030;2022-12-17T17:21:54;43;29;10
33948;PMS7003;20229;49.856;19.030;2022-12-17T17:27:16;48;34;13
33948;PMS7003;20229;49.856;19.030;2022-12-17T17:32:19;49;37;9
33948;PMS7003;20229;49.856;19.030;2022-12-17T17:37:42;47;34;8
33948;PMS7003;20229;49.856;19.030;2022-12-17T17:42:45;57;43;14
33948;PMS7003;20229;49.856;19.030;2022-12-17T17:48:08;56;44;13
33948;PMS7003;20229;49.856;19.030;2022-12-17T17:53:11;63;51;23
33948;PMS7003;20229;49.856;19.030;2022-12-17T17:58:34;69;55;29
33948;PMS7003;20229;49.856;19.030;2022-12-17T18:03:38;71;57;29
33948;PMS7003;20229;49.856;19.030;2022-12-17T18:09:00;80;67;37
33948;PMS7003;20229;49.856;19.030;2022-12-17T18:14:04;73;63;34
33948;PMS7003;20229;49.856;19.030;2022-12-17T18:19:26;80;65;39
33948;PMS7003;20229;49.856;19.030;2022-12-17T18:24:30;76;63;36
33948;PMS7003;20229;49.856;19.030;2022-12-17T18:29:53;63;52;33
33948;PMS7003;20229;49.856;19.030;2022-12-17T18:34:56;89;71;45
33948;PMS7003;20229;49.856;19.030;2022-12-17T18:40:19;69;55;35
33948;PMS7003;20229;49.856;19.030;2022-12-17T18:45:22;61;48;26
33948;PMS7003;20229;49.856;19.030;2022-12-17T18:50:45;62;47;26
33948;PMS7003;20229;49.856;19.030;2022-12-17T18:55:48;66;51;30
33948;PMS7003;20229;49.856;19.030;2022-12-17T19:01:20;65;51;31
33948;PMS7003;20229;49.856;19.030;2022-12-17T19:06:22;68;53;33
33948;PMS7003;20229;49.856;19.030;2022-12-17T19:11:37;59;45;27
33948;PMS7003;20229;49.856;19.030;2022-12-17T19:16:41;64;49;30
33948;PMS7003;20229;49.856;19.030;2022-12-17T19:22:03;70;58;33
33948;PMS7003;20229;49.856;19.030;2022-12-17T19:27:08;66;54;32
33948;PMS7003;20229;49.856;19.030;2022-12-17T19:32:29;95;78;49
33948;PMS7003;20229;49.856;19.030;2022-12-17T19:37:33;78;64;42
33948;PMS7003;20229;49.856;19.030;2022-12-17T19:42:55;90;70;38
33948;PMS7003;20229;49.856;19.030;2022-12-17T19:47:59;67;56;34
33948;PMS7003;20229;49.856;19.030;2022-12-17T19:53:22;69;58;35
33948;PMS7003;20229;49.856;19.030;2022-12-17T20:04:10;76;66;39
33948;PMS7003;20229;49.856;19.030;2022-12-17T20:09:17;81;69;39
33948;PMS7003;20229;49.856;19.030;2022-12-17T20:14:22;79;69;42
33948;PMS7003;20229;49.856;19.030;2022-12-17T20:19:33;98;86;52
33948;PMS7003;20229;49.856;19.030;2022-12-17T20:30:21;103;91;51
33948;PMS7003;20229;49.856;19.030;2022-12-17T20:35:25;93;86;51
33948;PMS7003;20229;49.856;19.030;2022-12-17T20:40:29;106;95;58
33948;PMS7003;20229;49.856;19.030;2022-12-17T20:45:34;110;99;58
33948;PMS7003;20229;49.856;19.030;2022-12-17T20:50:38;97;86;48
33948;PMS7003;20229;49.856;19.030;2022-12-17T20:56:00;102;93;53
33948;PMS7003;20229;49.856;19.030;2022-12-17T21:06:30;103;93;56
33948;PMS7003;20229;49.856;19.030;2022-12-17T21:11:38;103;90;55
33948;PMS7003;20229;49.856;19.030;2022-12-17T21:16:52;97;84;52
33948;PMS7003;20229;49.856;19.030;2022-12-17T21:21:55;102;90;53
33948;PMS7003;20229;49.856;19.030;2022-12-17T21:27:18;130;116;74
33948;PMS7003;20229;49.856;19.030;2022-12-17T21:32:23;129;111;68
33948;PMS7003;20229;49.856;19.030;2022-12-17T21:37:44;101;93;59
33948;PMS7003;20229;49.856;19.030;2022-12-17T21:42:48;118;105;65
33948;PMS7003;20229;49.856;19.030;2022-12-17T21:48:11;101;92;58
33948;PMS7003;20229;49.856;19.030;2022-12-17T21:53:15;96;88;59
33948;PMS7003;20229;49.856;19.030;2022-12-17T21:58:37;109;96;58
33948;PMS7003;20229;49.856;19.030;2022-12-17T22:03:41;91;83;51
33948;PMS7003;20229;49.856;19.030;2022-12-17T22:09:06;87;77;48
33948;PMS7003;20229;49.856;19.030;2022-12-17T22:14:10;82;73;48
33948;PMS7003;20229;49.856;19.030;2022-12-17T22:19:29;88;79;48
33948;PMS7003;20229;49.856;19.030;2022-12-17T22:24:33;74;66;41
33948;PMS7003;20229;49.856;19.030;2022-12-17T22:29:56;72;65;42
33948;PMS7003;20229;49.856;19.030;2022-12-17T22:35:11;64;57;34
33948;PMS7003;20229;49.856;19.030;2022-12-17T22:40:22;59;52;33
33948;PMS7003;20229;49.856;19.030;2022-12-17T22:45:26;53;45;32
33948;PMS7003;20229;49.856;19.030;2022-12-17T22:50:48;42;36;25
33948;PMS7003;20229;49.856;19.030;2022-12-17T22:55:51;42;35;22
33948;PMS7003;20229;49.856;19.030;2022-12-17T23:01:14;31;25;15
33948;PMS7003;20229;49.856;19.030;2022-12-17T23:06:17;32;25;16
33948;PMS7003;20229;49.856;19.030;2022-12-17T23:11:40;33;24;16
33948;PMS7003;20229;49.856;19.030;2022-12-17T23:16:43;33;27;17
33948;PMS7003;20229;49.856;19.030;2022-12-17T23:22:05;33;27;14
33948;PMS7003;20229;49.856;19.030;2022-12-17T23:27:09;38;29;18
33948;PMS7003;20229;49.856;19.030;2022-12-17T23:32:31;33;25;16
33948;PMS7003;20229;49.856;19.030;2022-12-17T23:37:35;33;26;15
33948;PMS7003;20229;49.856;19.030;2022-12-17T23:42:57;40;32;20
33948;PMS7003;20229;49.856;19.030;2022-12-17T23:48:02;36;28;14
33948;PMS7003;20229;49.856;19.030;2022-12-17T23:53:24;36;27;16
33948;PMS7003;20229;49.856;19.030;2022-12-17T23:58:29;40;29;16
